METAR AND TAF INFORMATION
METAR FOR UACC
ADDS - METARS form results

(0925 UTC 22 July 2019)
Data provider http://aviationweather.gov/metar/data/
 
METAR text: UACC 220900Z 01008MPS 9999 SCT026CB BKN043 24/17 Q1003 R04/0///70 NOSIG RMK QFE721/0961
Conditions at: UACC (ASTANA KAZAKHSTA, KZ) observed 0900 UTC 22 July 2019
Temperature: 24.0°C (75°F)
Dewpoint: 17.0°C (63°F) [RH = 65%]
Pressure (altimeter): 29.62 inches Hg (1003.0 mb)
Winds: from the N (10 degrees) at 18 MPH (16 knots; 8.2 m/s)
Visibility: 6 or more miles (10+ km)
Ceiling: 4300 feet AGL
Clouds: scattered clouds at 2600 feet AGL
broken clouds at 4300 feet AGL
Weather: no significant weather observed at this time

METAR text: UACC 220830Z 01008MPS 9999 SCT043CB BKN076 25/17 Q1002 R04/0///70 NOSIG RMK QFE721/0961
Conditions at: UACC (ASTANA KAZAKHSTA, KZ) observed 0830 UTC 22 July 2019
Temperature: 25.0°C (77°F)
Dewpoint: 17.0°C (63°F) [RH = 61%]
Pressure (altimeter): 29.59 inches Hg (1002.0 mb)
Winds: from the N (10 degrees) at 18 MPH (16 knots; 8.2 m/s)
Visibility: 6 or more miles (10+ km)
Ceiling: 7600 feet AGL
Clouds: scattered clouds at 4300 feet AGL
broken clouds at 7600 feet AGL
Weather: no significant weather observed at this time

Forecast for: UACC (ASTANA KAZAKHSTA, KZ)
Text: TAF UACC 220500Z 2206/2306 32010G15MPS 9999 SCT030CB BKN100 TX28/2208Z TN15/2223Z
Forecast period: 0600 to 1600 UTC 22 July 2019
Forecast type: FROM: standard forecast or significant change
Winds: from the NW (320 degrees) at 22 MPH (19 knots; 9.8 m/s)
gusting to 33 MPH (29 knots; 14.9 m/s)
Visibility: 6 or more miles 10+ km)
Ceiling: 10000 feet AGL
Clouds: scattered clouds at 3000 feet AGL
broken clouds at 10000 feet AGL
Weather: no significant weather forecast for this period
Text: TEMPO 2206/2213 3100 TSRA BKN020CB
Forecast period: 0600 to 1300 UTC 22 July 2019
Forecast type: TEMPORARY: The following changes expected for less than half the time period
Visibility: 1.93 miles (3.11 km)
Ceiling: 2000 feet AGL
Clouds: broken clouds at 2000 feet AGL
Weather: TSRA  (rain associated with thunderstorm(s))
Text: BECMG 2216/2218 29006MPS
Forecast period: 1600 UTC 22 July 2019 to 0600 UTC 23 July 2019
Forecast type: BECOMING: Conditions expected to become as follows by 1800 UTC 22 July 2019
Winds: from the WNW (290 degrees) at 14 MPH (12 knots; 6.2 m/s)
Visibility: 6 or more miles 10+ km)
Ceiling: 10000 feet AGL
Clouds: scattered clouds at 3000 feet AGL
broken clouds at 10000 feet AGL
Weather: no significant weather forecast for this period

 AIRPORT MAP

 RUNWAY INFORMATION

 AIRPORT FREQUENCIES
Type APP Name APP Frequency 124.6 MHZ
Type ATIS Name ATIS Frequency 128.3 MHZ
Type RDR Name RADAR Frequency 124.6 MHZ
Type TWR Name TWR Frequency 118.7 MHZ

 AIRPORT NEAR NAVIGATION AIDS
Type NDB Name Astana Frequency 318 KHZ
Type VOR-DME Name Astana Frequency 114200 KHZ
Type NDB Name Astana Frequency 318 KHZ



2018 Air Astana Virtual Airline